If you wish to contribute or participate in the discussions about articles you are invited to join SKYbrary as a registered user

 Actions

Johan Adolf Pengel International Airport

From SKYbrary Wiki

SMJP
Airport
ICAO: SMJP – IATA: PBM
Summary
Name Johan Adolf Pengel International Airport
Region South America and Caribbean
Territory Suriname SR.gif
Location Zanderij, Paramaribo
Serving Paramaribo
Elevation 17.983 m
59 ft17.983 m
Coordinates 5° 27' 10.00" N, 55° 11' 42.00" W
Runways
Designator Length Width Surface ROPS
11/29 3480 m11,417.323 ft
45 m147.638 ft
ASPHALT yes/yes


METAR
Observation SMJP 111028Z VRB02KT 0700 FG SCT001 23/23 Q1010 BECMG FM1100 5000 BR
Station Johan A. Pengel
Date/Time 11 November 2019 10:28:00
Wind direction °
Wind speed 02 kts
Lowest cloud amount scattered clouds
Temperature 23°C
Dew point 23°C
Humidity 100%
QNH 1010 hPa
Weather condition n/a

Johan Adolf Pengel International Airport, also known as Paramaribo-Zanderij International Airport, is an airport located in the town of Zanderij, 45 km24.298 nm
45,000 m
147,637.795 ft
south of Paramaribo.

Climatology

Tropical Rainforest climate (Köppen climate classification Af).

Maps

Terrain

Loading map...

Airport Layout

Loading map...


Accidents & Serious Incidents at or in vicinity of SMJP

None on SKYbrary